createdAt,value
2022-07-30T00:00:09.736Z,0.00
2022-07-30T00:01:09.748Z,0.00
2022-07-30T00:02:09.630Z,0.00
2022-07-30T00:03:09.584Z,0.00
2022-07-30T00:04:09.618Z,0.00
2022-07-30T00:05:09.478Z,0.00
2022-07-30T00:06:09.465Z,0.00
2022-07-30T00:07:09.390Z,0.00
2022-07-30T00:08:09.331Z,0.00
2022-07-30T00:09:09.279Z,0.00
2022-07-30T00:10:09.229Z,0.00
2022-07-30T00:11:09.199Z,0.00
2022-07-30T00:12:09.167Z,0.00
2022-07-30T00:13:09.087Z,0.00
2022-07-30T00:14:09.036Z,0.00
2022-07-30T00:15:08.964Z,0.00
2022-07-30T00:16:08.913Z,0.00
2022-07-30T00:17:08.917Z,0.00
2022-07-30T00:18:08.857Z,0.00
2022-07-30T00:19:08.759Z,0.00
2022-07-30T00:20:08.709Z,0.00
2022-07-30T00:21:08.658Z,0.00
2022-07-30T00:22:08.619Z,0.00
2022-07-30T00:23:08.562Z,0.00
2022-07-30T00:24:08.633Z,0.00
2022-07-30T00:25:08.495Z,0.00
2022-07-30T00:26:08.426Z,0.00
2022-07-30T00:27:08.389Z,0.00
2022-07-30T00:28:08.347Z,0.00
2022-07-30T00:29:08.280Z,0.00
2022-07-30T00:30:08.219Z,0.00
2022-07-30T00:31:08.246Z,0.00
2022-07-30T00:32:08.157Z,0.00
2022-07-30T00:33:08.330Z,0.00
2022-07-30T00:34:08.053Z,0.00
2022-07-30T00:35:07.974Z,0.00
2022-07-30T00:36:07.910Z,0.00
2022-07-30T00:37:07.881Z,0.00
2022-07-30T00:38:07.838Z,0.00
2022-07-30T00:39:07.781Z,0.00
2022-07-30T00:40:07.746Z,0.00
2022-07-30T00:41:07.668Z,0.00
2022-07-30T00:42:07.620Z,0.00
2022-07-30T00:43:07.576Z,0.00
2022-07-30T00:44:07.517Z,0.00
2022-07-30T00:45:07.502Z,0.00
2022-07-30T00:46:07.496Z,0.00
2022-07-30T00:47:07.388Z,0.00
2022-07-30T00:48:07.344Z,0.00
2022-07-30T00:49:07.320Z,0.00
2022-07-30T00:50:07.238Z,0.00
2022-07-30T00:51:07.184Z,0.00
2022-07-30T00:52:07.091Z,0.00
2022-07-30T00:53:07.077Z,0.00
2022-07-30T00:54:07.026Z,0.00
2022-07-30T00:55:06.965Z,0.00
2022-07-30T00:56:06.939Z,0.00
2022-07-30T00:57:06.865Z,0.00
2022-07-30T00:58:06.820Z,0.00
2022-07-30T00:59:06.770Z,0.00
2022-07-30T01:00:06.700Z,0.00
2022-07-30T01:01:06.724Z,0.00
2022-07-30T01:02:15.906Z,0.00
2022-07-30T01:03:06.575Z,0.00
2022-07-30T01:04:06.554Z,0.00
2022-07-30T01:05:06.472Z,0.00
2022-07-30T01:06:06.420Z,0.00
2022-07-30T01:07:06.347Z,0.00
2022-07-30T01:08:06.434Z,0.00
2022-07-30T01:09:06.279Z,0.00
2022-07-30T01:10:06.219Z,0.00
2022-07-30T01:11:06.163Z,0.00
2022-07-30T01:12:06.114Z,0.00
2022-07-30T01:13:06.060Z,0.00
2022-07-30T01:14:06.037Z,0.00
2022-07-30T01:15:05.983Z,0.00
2022-07-30T01:16:05.966Z,0.00
2022-07-30T01:17:05.859Z,0.00
2022-07-30T01:18:05.811Z,0.00
2022-07-30T01:19:05.793Z,0.00
2022-07-30T01:20:05.712Z,0.00
2022-07-30T01:21:05.665Z,0.00
2022-07-30T01:22:05.612Z,0.00
2022-07-30T01:23:05.559Z,0.00
2022-07-30T01:24:05.519Z,0.00
2022-07-30T01:25:05.460Z,0.00
2022-07-30T01:26:05.389Z,0.00
2022-07-30T01:27:05.342Z,0.00
2022-07-30T01:28:05.329Z,0.00
2022-07-30T01:29:05.281Z,0.00
2022-07-30T01:30:05.230Z,0.00
2022-07-30T01:31:05.150Z,0.00
2022-07-30T01:32:05.174Z,0.00
2022-07-30T01:33:05.050Z,0.00
2022-07-30T01:34:05.002Z,0.00
2022-07-30T01:35:04.978Z,0.00
2022-07-30T01:36:04.898Z,0.00
2022-07-30T01:37:04.856Z,0.00
2022-07-30T01:38:04.801Z,0.00
2022-07-30T01:39:04.760Z,0.00
2022-07-30T01:40:04.720Z,0.00
2022-07-30T01:41:04.637Z,0.00
2022-07-30T01:42:04.641Z,0.00
2022-07-30T01:43:04.550Z,0.00
2022-07-30T01:44:04.501Z,0.00
2022-07-30T01:45:04.493Z,0.00
2022-07-30T01:46:04.449Z,0.00
2022-07-30T01:47:04.343Z,0.00
2022-07-30T01:48:04.280Z,0.00
2022-07-30T01:49:04.288Z,0.00
2022-07-30T01:50:04.231Z,0.00
2022-07-30T01:51:04.172Z,0.00
2022-07-30T01:52:04.109Z,0.00
2022-07-30T01:53:04.096Z,0.00
2022-07-30T01:54:04.000Z,0.00
2022-07-30T01:55:03.975Z,0.00
2022-07-30T01:56:03.962Z,0.00
2022-07-30T01:57:04.033Z,0.00
2022-07-30T01:58:03.801Z,0.00
2022-07-30T01:59:03.749Z,0.00
2022-07-30T02:00:03.693Z,0.00
2022-07-30T02:01:03.796Z,0.00
2022-07-30T02:02:03.610Z,0.00
2022-07-30T02:03:03.523Z,0.00
2022-07-30T02:04:03.569Z,0.00
2022-07-30T02:05:03.431Z,0.00
2022-07-30T02:06:03.371Z,0.00
2022-07-30T02:07:03.720Z,0.00
2022-07-30T02:08:03.307Z,0.00
2022-07-30T02:09:06.998Z,0.00
2022-07-30T02:10:03.180Z,0.00
2022-07-30T02:11:03.120Z,0.00
2022-07-30T02:12:03.082Z,0.00
2022-07-30T02:13:03.029Z,0.00
2022-07-30T02:14:02.997Z,0.00
2022-07-30T02:15:02.931Z,0.00
2022-07-30T02:16:02.917Z,0.00
2022-07-30T02:17:03.394Z,0.00
2022-07-30T02:18:02.803Z,0.00
2022-07-30T02:19:04.387Z,0.00
2022-07-30T02:20:06.690Z,0.00
2022-07-30T02:21:02.653Z,0.00
2022-07-30T02:22:02.567Z,0.00
2022-07-30T02:23:02.548Z,0.00
2022-07-30T02:24:02.480Z,0.00
2022-07-30T02:25:02.420Z,0.00
2022-07-30T02:26:02.435Z,0.00
2022-07-30T02:27:02.900Z,0.00
2022-07-30T02:28:02.273Z,0.00
2022-07-30T02:29:02.240Z,0.00
2022-07-30T02:30:02.172Z,0.00
2022-07-30T02:31:02.195Z,0.00
2022-07-30T02:32:02.061Z,0.00
2022-07-30T02:33:02.040Z,0.00
2022-07-30T02:34:01.968Z,0.00
2022-07-30T02:35:01.904Z,0.00
2022-07-30T02:36:01.861Z,0.00
2022-07-30T02:37:02.207Z,0.00
2022-07-30T02:38:01.769Z,0.00
2022-07-30T02:39:01.719Z,0.00
2022-07-30T02:40:01.656Z,0.00
2022-07-30T02:41:01.603Z,0.00
2022-07-30T02:42:01.563Z,0.00
2022-07-30T02:43:01.499Z,0.00
2022-07-30T02:44:01.484Z,0.00
2022-07-30T02:45:01.416Z,0.00
2022-07-30T02:46:01.361Z,0.00
2022-07-30T02:47:04.714Z,0.00
2022-07-30T02:48:01.233Z,0.00
2022-07-30T02:49:01.257Z,0.00
2022-07-30T02:50:01.142Z,0.00
2022-07-30T02:51:01.097Z,0.00
2022-07-30T02:52:01.041Z,0.00
2022-07-30T02:53:01.008Z,0.00
2022-07-30T02:54:07.811Z,0.00
2022-07-30T02:55:00.899Z,0.00
2022-07-30T02:56:00.879Z,0.00
2022-07-30T02:57:01.070Z,0.00
2022-07-30T02:58:00.746Z,0.00
2022-07-30T02:59:00.710Z,0.00
2022-07-30T03:00:00.648Z,0.00
2022-07-30T03:01:00.734Z,0.00
2022-07-30T03:02:00.588Z,0.00
2022-07-30T03:03:00.498Z,0.00
2022-07-30T03:04:00.452Z,0.00
2022-07-30T03:05:00.429Z,0.00
2022-07-30T03:06:00.490Z,0.00
2022-07-30T03:07:03.665Z,0.00
2022-07-30T03:08:00.261Z,0.00
2022-07-30T03:09:00.203Z,0.00
2022-07-30T03:10:00.143Z,0.00
2022-07-30T03:11:00.123Z,0.00
2022-07-30T03:12:00.078Z,0.00
2022-07-30T03:12:59.988Z,0.00
2022-07-30T03:13:59.953Z,0.00
2022-07-30T03:14:59.888Z,0.00
2022-07-30T03:15:59.889Z,0.00
2022-07-30T03:17:00.037Z,0.00
2022-07-30T03:17:59.717Z,0.00
2022-07-30T03:18:59.698Z,0.00
2022-07-30T03:19:59.648Z,0.00
2022-07-30T03:20:59.583Z,0.00
2022-07-30T03:21:59.558Z,0.00
2022-07-30T03:22:59.482Z,0.00
2022-07-30T03:23:59.439Z,0.00
2022-07-30T03:24:59.379Z,0.00
2022-07-30T03:25:59.321Z,0.00
2022-07-30T03:26:59.507Z,0.00
2022-07-30T03:27:59.222Z,0.00
2022-07-30T03:28:59.181Z,0.00
2022-07-30T03:29:59.109Z,0.00
2022-07-30T03:30:59.117Z,0.00
2022-07-30T03:31:59.095Z,0.00
2022-07-30T03:32:58.998Z,0.00
2022-07-30T03:33:58.911Z,0.00
2022-07-30T03:35:01.008Z,0.00
2022-07-30T03:35:58.823Z,0.00
2022-07-30T03:36:59.058Z,0.00
2022-07-30T03:37:58.738Z,0.00
2022-07-30T03:38:58.679Z,0.00
2022-07-30T03:39:58.599Z,0.00
2022-07-30T03:40:58.571Z,0.00
2022-07-30T03:41:58.539Z,0.00
2022-07-30T03:42:58.460Z,0.00
2022-07-30T03:43:58.428Z,0.00
2022-07-30T03:44:58.360Z,0.00
2022-07-30T03:45:58.300Z,0.00
2022-07-30T03:46:58.531Z,0.00
2022-07-30T03:47:58.212Z,0.00
2022-07-30T03:48:58.197Z,0.00
2022-07-30T03:49:58.130Z,0.00
2022-07-30T03:50:58.057Z,0.00
2022-07-30T03:51:57.990Z,0.00
2022-07-30T03:52:57.920Z,0.00
2022-07-30T03:53:57.916Z,0.00
2022-07-30T03:54:57.845Z,5.63
2022-07-30T03:55:57.799Z,5.63
2022-07-30T03:56:58.019Z,5.63
2022-07-30T03:57:57.730Z,5.63
2022-07-30T03:58:57.673Z,5.63
2022-07-30T03:59:57.627Z,5.63
2022-07-30T04:00:57.571Z,5.63
2022-07-30T04:01:57.528Z,5.63
2022-07-30T04:02:57.449Z,5.63
2022-07-30T04:03:57.481Z,5.63
2022-07-30T04:04:57.369Z,11.25
2022-07-30T04:05:57.289Z,11.25
2022-07-30T04:06:57.238Z,11.25
2022-07-30T04:07:57.191Z,11.25
2022-07-30T04:08:57.150Z,11.25
2022-07-30T04:09:57.098Z,11.25
2022-07-30T04:10:57.059Z,11.25
2022-07-30T04:11:56.966Z,11.25
2022-07-30T04:12:56.921Z,11.25
2022-07-30T04:13:56.873Z,11.25
2022-07-30T04:14:56.846Z,11.25
2022-07-30T04:16:05.740Z,11.25
2022-07-30T04:16:56.736Z,11.25
2022-07-30T04:17:56.681Z,11.25
2022-07-30T04:18:56.671Z,11.25
2022-07-30T04:19:56.581Z,11.25
2022-07-30T04:20:56.544Z,11.25
2022-07-30T04:21:56.497Z,11.25
2022-07-30T04:22:56.410Z,16.88
2022-07-30T04:24:02.286Z,16.88
2022-07-30T04:24:56.323Z,16.88
2022-07-30T04:25:56.286Z,16.88
2022-07-30T04:26:56.219Z,16.88
2022-07-30T04:28:03.097Z,16.88
2022-07-30T04:28:56.139Z,22.50
2022-07-30T04:29:56.047Z,22.50
2022-07-30T04:30:56.074Z,22.50
2022-07-30T04:31:55.949Z,22.50
2022-07-30T04:32:55.920Z,22.50
2022-07-30T04:33:55.901Z,22.50
2022-07-30T04:34:55.810Z,28.13
2022-07-30T04:35:55.765Z,28.13
2022-07-30T04:36:55.740Z,28.13
2022-07-30T04:37:55.660Z,28.13
2022-07-30T04:38:55.604Z,22.50
2022-07-30T04:39:55.626Z,22.50
2022-07-30T04:40:55.511Z,22.50
2022-07-30T04:41:55.480Z,22.50
2022-07-30T04:42:55.387Z,22.50
2022-07-30T04:43:55.341Z,22.50
2022-07-30T04:44:55.328Z,28.13
2022-07-30T04:45:55.239Z,28.13
2022-07-30T04:46:55.271Z,28.13
2022-07-30T04:47:55.315Z,28.13
2022-07-30T04:48:55.172Z,28.13
2022-07-30T04:49:55.070Z,28.13
2022-07-30T04:50:55.825Z,28.13
2022-07-30T04:51:55.051Z,28.13
2022-07-30T04:52:54.879Z,28.13
2022-07-30T04:53:54.848Z,28.13
2022-07-30T04:54:54.819Z,28.13
2022-07-30T04:55:54.769Z,33.75
2022-07-30T04:56:54.734Z,33.75
2022-07-30T04:57:54.643Z,33.75
2022-07-30T04:58:54.581Z,33.75
2022-07-30T04:59:54.560Z,33.75
2022-07-30T05:00:54.504Z,39.38
2022-07-30T05:01:54.557Z,33.75
2022-07-30T05:02:54.374Z,33.75
2022-07-30T05:03:54.329Z,33.75
2022-07-30T05:04:54.329Z,28.13
2022-07-30T05:05:57.485Z,28.13
2022-07-30T05:06:54.178Z,28.13
2022-07-30T05:07:54.159Z,28.13
2022-07-30T05:08:54.085Z,28.13
2022-07-30T05:09:54.011Z,28.13
2022-07-30T05:10:53.982Z,28.13
2022-07-30T05:11:53.951Z,28.13
2022-07-30T05:12:53.860Z,28.13
2022-07-30T05:13:53.891Z,28.13
2022-07-30T05:14:53.772Z,33.75
2022-07-30T05:15:53.776Z,33.75
2022-07-30T05:16:53.705Z,33.75
2022-07-30T05:17:53.622Z,33.75
2022-07-30T05:18:53.581Z,33.75
2022-07-30T05:19:53.525Z,33.75
2022-07-30T05:20:53.490Z,33.75
2022-07-30T05:21:53.423Z,33.75
2022-07-30T05:22:53.360Z,33.75
2022-07-30T05:23:53.329Z,33.75
2022-07-30T05:24:53.302Z,33.75
2022-07-30T05:25:53.203Z,33.75
2022-07-30T05:26:53.201Z,33.75
2022-07-30T05:27:53.111Z,33.75
2022-07-30T05:28:56.670Z,33.75
2022-07-30T05:29:53.033Z,33.75
2022-07-30T05:30:53.016Z,33.75
2022-07-30T05:31:52.927Z,33.75
2022-07-30T05:32:52.861Z,39.38
2022-07-30T05:33:52.823Z,39.38
2022-07-30T05:34:52.761Z,39.38
2022-07-30T05:35:52.709Z,39.38
2022-07-30T05:36:52.679Z,39.38
2022-07-30T05:37:52.592Z,39.38
2022-07-30T05:38:52.547Z,39.38
2022-07-30T05:39:58.860Z,39.38
2022-07-30T05:40:52.439Z,39.38
2022-07-30T05:41:52.431Z,39.38
2022-07-30T05:42:52.348Z,45.00
2022-07-30T05:43:55.729Z,45.00
2022-07-30T05:44:52.252Z,45.00
2022-07-30T05:45:52.249Z,50.63
2022-07-30T05:46:52.181Z,56.25
2022-07-30T05:47:52.100Z,61.88
2022-07-30T05:48:52.091Z,78.75
2022-07-30T05:49:51.977Z,90.00
2022-07-30T05:50:51.975Z,101.25
2022-07-30T05:51:51.899Z,106.88
2022-07-30T05:52:51.850Z,112.50
2022-07-30T05:53:51.818Z,106.88
2022-07-30T05:54:51.730Z,112.50
2022-07-30T05:55:51.724Z,135.00
2022-07-30T05:56:51.644Z,140.63
2022-07-30T05:57:51.610Z,129.38
2022-07-30T05:58:51.552Z,118.13
2022-07-30T05:59:51.520Z,118.13
2022-07-30T06:00:51.441Z,118.13
2022-07-30T06:01:51.504Z,118.13
2022-07-30T06:02:51.329Z,123.75
2022-07-30T06:03:51.293Z,123.75
2022-07-30T06:04:51.327Z,123.75
2022-07-30T06:05:51.158Z,129.38
2022-07-30T06:06:51.139Z,129.38
2022-07-30T06:07:51.091Z,129.38
2022-07-30T06:08:51.040Z,135.00
2022-07-30T06:09:50.993Z,135.00
2022-07-30T06:10:50.918Z,135.00
2022-07-30T06:11:50.871Z,135.00
2022-07-30T06:12:50.831Z,135.00
2022-07-30T06:13:50.777Z,140.63
2022-07-30T06:14:50.720Z,140.63
2022-07-30T06:15:50.780Z,146.25
2022-07-30T06:16:50.660Z,146.25
2022-07-30T06:17:51.133Z,146.25
2022-07-30T06:18:50.697Z,146.25
2022-07-30T06:19:50.514Z,151.88
2022-07-30T06:20:50.423Z,151.88
2022-07-30T06:22:01.636Z,157.50
2022-07-30T06:22:50.355Z,163.13
2022-07-30T06:23:50.340Z,163.13
2022-07-30T06:24:50.259Z,168.75
2022-07-30T06:25:50.175Z,174.38
2022-07-30T06:26:50.159Z,168.75
2022-07-30T06:27:50.091Z,168.75
2022-07-30T06:28:50.106Z,168.75
2022-07-30T06:29:49.977Z,163.13
2022-07-30T06:30:49.968Z,163.13
2022-07-30T06:31:50.079Z,168.75
2022-07-30T06:32:50.336Z,163.13
2022-07-30T06:33:49.787Z,163.13
2022-07-30T06:34:55.145Z,163.13
2022-07-30T06:35:49.658Z,151.88
2022-07-30T06:36:49.658Z,140.63
2022-07-30T06:37:58.628Z,140.63
2022-07-30T06:38:49.575Z,123.75
2022-07-30T06:39:57.126Z,112.50
2022-07-30T06:40:49.467Z,106.88
2022-07-30T06:41:49.372Z,101.25
2022-07-30T06:42:49.329Z,101.25
2022-07-30T06:43:49.277Z,95.63
2022-07-30T06:44:49.274Z,95.63
2022-07-30T06:45:49.173Z,95.63
2022-07-30T06:46:49.143Z,90.00
2022-07-30T06:47:49.095Z,90.00
2022-07-30T06:48:49.091Z,90.00
2022-07-30T06:49:48.991Z,95.63
2022-07-30T06:50:48.930Z,95.63
2022-07-30T06:51:48.876Z,101.25
2022-07-30T06:52:48.855Z,118.13
2022-07-30T06:53:48.811Z,118.13
2022-07-30T06:54:48.744Z,112.50
2022-07-30T06:55:48.679Z,106.88
2022-07-30T06:56:48.644Z,101.25
2022-07-30T06:57:48.590Z,123.75
2022-07-30T06:58:48.550Z,135.00
2022-07-30T06:59:56.646Z,146.25
2022-07-30T07:00:48.445Z,163.13
2022-07-30T07:01:48.481Z,163.13
2022-07-30T07:02:48.348Z,163.13
2022-07-30T07:03:48.295Z,151.88
2022-07-30T07:04:48.349Z,146.25
2022-07-30T07:05:48.192Z,151.88
2022-07-30T07:06:48.130Z,157.50
2022-07-30T07:07:58.334Z,168.75
2022-07-30T07:08:52.601Z,185.63
2022-07-30T07:09:57.408Z,208.13
2022-07-30T07:10:47.923Z,225.00
2022-07-30T07:11:47.889Z,241.88
2022-07-30T07:12:47.820Z,253.13
2022-07-30T07:13:47.784Z,258.75
2022-07-30T07:14:47.760Z,264.38
2022-07-30T07:15:47.737Z,258.75
2022-07-30T07:16:48.963Z,264.38
2022-07-30T07:17:47.582Z,281.25
2022-07-30T07:18:47.537Z,309.38
2022-07-30T07:20:00.961Z,303.75
2022-07-30T07:20:47.421Z,331.88
2022-07-30T07:21:47.403Z,337.50
2022-07-30T07:22:47.357Z,326.25
2022-07-30T07:23:47.286Z,320.63
2022-07-30T07:24:47.234Z,309.38
2022-07-30T07:25:47.195Z,303.75
2022-07-30T07:26:47.184Z,286.88
2022-07-30T07:27:47.071Z,275.63
2022-07-30T07:28:47.063Z,275.63
2022-07-30T07:30:01.217Z,281.25
2022-07-30T07:30:46.981Z,292.50
2022-07-30T07:32:06.919Z,298.13
2022-07-30T07:32:46.831Z,298.13
2022-07-30T07:33:46.806Z,298.13
2022-07-30T07:34:46.751Z,298.13
2022-07-30T07:35:49.757Z,315.00
2022-07-30T07:36:46.657Z,298.13
2022-07-30T07:37:46.610Z,275.63
2022-07-30T07:38:46.563Z,270.00
2022-07-30T07:39:46.491Z,270.00
2022-07-30T07:40:46.479Z,275.63
2022-07-30T07:41:49.093Z,298.13
2022-07-30T07:42:46.387Z,292.50
2022-07-30T07:43:46.316Z,298.13
2022-07-30T07:44:46.284Z,309.38
2022-07-30T07:45:46.256Z,309.38
2022-07-30T07:46:46.224Z,320.63
2022-07-30T07:47:53.027Z,320.63
2022-07-30T07:48:46.132Z,326.25
2022-07-30T07:49:46.026Z,331.88
2022-07-30T07:50:46.000Z,337.50
2022-07-30T07:51:47.983Z,337.50
2022-07-30T07:52:45.868Z,343.13
2022-07-30T07:53:55.863Z,348.75
2022-07-30T07:54:45.768Z,348.75
2022-07-30T07:55:45.744Z,354.38
2022-07-30T07:56:45.682Z,365.63
2022-07-30T07:57:45.657Z,371.25
2022-07-30T07:58:45.602Z,354.38
2022-07-30T07:59:45.551Z,348.75
2022-07-30T08:00:45.477Z,354.38
2022-07-30T08:01:45.464Z,365.63
2022-07-30T08:02:45.433Z,343.13
2022-07-30T08:03:45.333Z,360.00
2022-07-30T08:04:45.320Z,343.13
2022-07-30T08:06:01.785Z,331.88
2022-07-30T08:06:45.221Z,365.63
2022-07-30T08:07:45.166Z,331.88
2022-07-30T08:08:45.128Z,343.13
2022-07-30T08:09:45.131Z,331.88
2022-07-30T08:10:45.050Z,315.00
2022-07-30T08:11:44.983Z,320.63
2022-07-30T08:12:44.911Z,365.63
2022-07-30T08:13:48.564Z,337.50
2022-07-30T08:14:44.846Z,320.63
2022-07-30T08:15:44.781Z,315.00
2022-07-30T08:16:44.874Z,320.63
2022-07-30T08:17:44.658Z,303.75
2022-07-30T08:18:44.651Z,315.00
2022-07-30T08:19:44.618Z,309.38
2022-07-30T08:20:44.571Z,298.13
2022-07-30T08:21:44.474Z,331.88
2022-07-30T08:22:44.461Z,343.13
2022-07-30T08:23:44.422Z,337.50
2022-07-30T08:24:44.367Z,320.63
2022-07-30T08:25:44.341Z,371.25
2022-07-30T08:26:44.262Z,360.00
2022-07-30T08:27:44.204Z,365.63
2022-07-30T08:28:44.167Z,337.50
2022-07-30T08:29:44.123Z,365.63
2022-07-30T08:30:44.065Z,382.50
2022-07-30T08:31:44.053Z,354.38
2022-07-30T08:32:43.983Z,320.63
2022-07-30T08:33:43.927Z,365.63
2022-07-30T08:34:43.891Z,326.25
2022-07-30T08:35:49.144Z,376.88
2022-07-30T08:36:43.839Z,416.25
2022-07-30T08:37:43.747Z,388.13
2022-07-30T08:38:43.720Z,410.63
2022-07-30T08:39:43.655Z,354.38
2022-07-30T08:40:43.636Z,393.75
2022-07-30T08:41:43.596Z,388.13
2022-07-30T08:42:43.500Z,382.50
2022-07-30T08:43:43.467Z,399.38
2022-07-30T08:44:43.415Z,410.63
2022-07-30T08:45:43.433Z,421.88
2022-07-30T08:46:47.227Z,438.75
2022-07-30T08:47:43.293Z,365.63
2022-07-30T08:48:43.276Z,360.00
2022-07-30T08:49:43.214Z,433.13
2022-07-30T08:50:43.174Z,444.38
2022-07-30T08:51:43.111Z,472.50
2022-07-30T08:52:43.045Z,405.00
2022-07-30T08:53:43.029Z,388.13
2022-07-30T08:54:42.997Z,382.50
2022-07-30T08:55:42.919Z,376.88
2022-07-30T08:56:42.896Z,371.25
2022-07-30T08:57:42.825Z,348.75
2022-07-30T08:58:42.818Z,421.88
2022-07-30T09:00:00.155Z,433.13
2022-07-30T09:00:42.691Z,427.50
2022-07-30T09:01:42.691Z,444.38
2022-07-30T09:02:42.603Z,472.50
2022-07-30T09:03:44.044Z,478.13
2022-07-30T09:04:42.507Z,466.88
2022-07-30T09:05:42.466Z,405.00
2022-07-30T09:06:42.900Z,376.88
2022-07-30T09:07:42.364Z,365.63
2022-07-30T09:08:42.359Z,416.25
2022-07-30T09:09:42.275Z,433.13
2022-07-30T09:10:42.243Z,427.50
2022-07-30T09:11:42.187Z,461.25
2022-07-30T09:12:42.191Z,472.50
2022-07-30T09:13:42.136Z,483.75
2022-07-30T09:14:42.057Z,410.63
2022-07-30T09:15:42.017Z,399.38
2022-07-30T09:16:41.965Z,399.38
2022-07-30T09:17:41.928Z,382.50
2022-07-30T09:18:41.915Z,348.75
2022-07-30T09:19:41.855Z,337.50
2022-07-30T09:20:41.774Z,438.75
2022-07-30T09:21:41.780Z,433.13
2022-07-30T09:22:41.682Z,427.50
2022-07-30T09:23:41.668Z,438.75
2022-07-30T09:24:41.608Z,455.63
2022-07-30T09:25:41.554Z,421.88
2022-07-30T09:26:41.532Z,354.38
2022-07-30T09:27:41.510Z,371.25
2022-07-30T09:28:41.466Z,455.63
2022-07-30T09:29:41.424Z,472.50
2022-07-30T09:30:41.429Z,478.13
2022-07-30T09:31:43.714Z,399.38
2022-07-30T09:32:41.294Z,478.13
2022-07-30T09:33:41.235Z,483.75
2022-07-30T09:34:41.188Z,405.00
2022-07-30T09:35:41.128Z,354.38
2022-07-30T09:36:41.096Z,337.50
2022-07-30T09:37:41.076Z,360.00
2022-07-30T09:38:41.006Z,326.25
2022-07-30T09:39:40.958Z,331.88
2022-07-30T09:40:42.934Z,343.13
2022-07-30T09:41:40.911Z,416.25
2022-07-30T09:42:40.816Z,388.13
2022-07-30T09:43:40.817Z,382.50
2022-07-30T09:44:40.773Z,292.50
2022-07-30T09:45:40.698Z,281.25
2022-07-30T09:46:40.777Z,376.88
2022-07-30T09:47:40.617Z,253.13
2022-07-30T09:48:40.643Z,258.75
2022-07-30T09:49:40.539Z,225.00
2022-07-30T09:50:40.511Z,236.25
2022-07-30T09:52:06.656Z,241.88
2022-07-30T09:52:43.874Z,241.88
2022-07-30T09:53:40.379Z,376.88
2022-07-30T09:54:40.295Z,315.00
2022-07-30T09:55:42.111Z,433.13
2022-07-30T09:56:40.231Z,444.38
2022-07-30T09:57:40.169Z,450.00
2022-07-30T09:58:40.156Z,337.50
2022-07-30T09:59:40.121Z,348.75
2022-07-30T10:00:42.422Z,326.25
2022-07-30T10:01:49.891Z,315.00
2022-07-30T10:02:39.965Z,427.50
2022-07-30T10:03:42.032Z,438.75
2022-07-30T10:04:40.400Z,371.25
2022-07-30T10:05:39.839Z,472.50
2022-07-30T10:06:41.931Z,489.38
2022-07-30T10:07:42.725Z,483.75
2022-07-30T10:08:39.727Z,483.75
2022-07-30T10:09:39.666Z,483.75
2022-07-30T10:10:47.039Z,478.13
2022-07-30T10:11:39.601Z,478.13
2022-07-30T10:12:39.549Z,478.13
2022-07-30T10:13:43.909Z,472.50
2022-07-30T10:14:42.529Z,478.13
2022-07-30T10:15:39.414Z,466.88
2022-07-30T10:16:39.376Z,472.50
2022-07-30T10:17:39.357Z,472.50
2022-07-30T10:18:39.283Z,438.75
2022-07-30T10:19:39.908Z,315.00
2022-07-30T10:20:39.203Z,421.88
2022-07-30T10:21:39.155Z,438.75
2022-07-30T10:22:39.126Z,444.38
2022-07-30T10:23:44.325Z,444.38
2022-07-30T10:24:39.064Z,444.38
2022-07-30T10:25:49.439Z,433.13
2022-07-30T10:26:38.961Z,438.75
2022-07-30T10:27:38.935Z,438.75
2022-07-30T10:28:38.862Z,433.13
2022-07-30T10:29:38.820Z,427.50
2022-07-30T10:30:38.806Z,421.88
2022-07-30T10:31:48.614Z,416.25
2022-07-30T10:32:38.705Z,427.50
2022-07-30T10:33:40.269Z,427.50
2022-07-30T10:34:42.482Z,427.50
2022-07-30T10:35:38.662Z,421.88
2022-07-30T10:36:38.535Z,416.25
2022-07-30T10:37:38.493Z,410.63
2022-07-30T10:38:39.212Z,416.25
2022-07-30T10:39:38.431Z,410.63
2022-07-30T10:40:39.632Z,416.25
2022-07-30T10:41:47.311Z,421.88
2022-07-30T10:42:38.277Z,416.25
2022-07-30T10:43:38.243Z,416.25
2022-07-30T10:44:38.198Z,281.25
2022-07-30T10:45:43.741Z,410.63
2022-07-30T10:46:38.122Z,410.63
2022-07-30T10:47:44.954Z,416.25
2022-07-30T10:48:38.046Z,421.88
2022-07-30T10:49:41.274Z,298.13
2022-07-30T10:50:37.979Z,303.75
2022-07-30T10:51:37.931Z,416.25
2022-07-30T10:52:37.890Z,416.25
2022-07-30T10:53:37.821Z,416.25
2022-07-30T10:54:39.475Z,416.25
2022-07-30T10:55:38.867Z,416.25
2022-07-30T10:56:37.708Z,410.63
2022-07-30T10:57:41.471Z,275.63
2022-07-30T10:58:37.629Z,393.75
2022-07-30T10:59:37.577Z,393.75
2022-07-30T11:00:38.316Z,399.38
2022-07-30T11:01:37.501Z,399.38
2022-07-30T11:02:37.477Z,405.00
2022-07-30T11:03:41.157Z,416.25
2022-07-30T11:04:37.368Z,416.25
2022-07-30T11:05:45.451Z,421.88
2022-07-30T11:06:37.289Z,410.63
2022-07-30T11:07:37.234Z,410.63
2022-07-30T11:08:37.217Z,405.00
2022-07-30T11:09:37.210Z,416.25
2022-07-30T11:10:37.148Z,416.25
2022-07-30T11:12:05.447Z,270.00
2022-07-30T11:12:37.048Z,264.38
2022-07-30T11:13:38.379Z,399.38
2022-07-30T11:14:36.976Z,253.13
2022-07-30T11:15:36.941Z,365.63
2022-07-30T11:16:37.217Z,382.50
2022-07-30T11:17:36.856Z,382.50
2022-07-30T11:18:36.826Z,382.50
2022-07-30T11:19:55.988Z,388.13
2022-07-30T11:20:36.708Z,388.13
2022-07-30T11:21:36.664Z,376.88
2022-07-30T11:22:36.674Z,371.25
2022-07-30T11:23:36.642Z,360.00
2022-07-30T11:24:36.595Z,219.38
2022-07-30T11:25:50.739Z,360.00
2022-07-30T11:26:36.466Z,354.38
2022-07-30T11:27:36.474Z,365.63
2022-07-30T11:28:36.418Z,360.00
2022-07-30T11:29:36.375Z,376.88
2022-07-30T11:30:36.318Z,388.13
2022-07-30T11:31:56.665Z,388.13
2022-07-30T11:32:36.239Z,388.13
2022-07-30T11:33:36.202Z,393.75
2022-07-30T11:34:36.186Z,388.13
2022-07-30T11:35:36.128Z,399.38
2022-07-30T11:36:36.085Z,360.00
2022-07-30T11:37:36.020Z,343.13
2022-07-30T11:38:36.017Z,236.25
2022-07-30T11:39:38.766Z,225.00
2022-07-30T11:40:35.938Z,219.38
2022-07-30T11:41:35.854Z,213.75
2022-07-30T11:42:35.815Z,213.75
2022-07-30T11:43:36.931Z,213.75
2022-07-30T11:44:35.742Z,208.13
2022-07-30T11:45:35.744Z,202.50
2022-07-30T11:46:35.669Z,196.88
2022-07-30T11:47:35.632Z,185.63
2022-07-30T11:48:35.615Z,180.00
2022-07-30T11:49:35.594Z,174.38
2022-07-30T11:50:35.507Z,163.13
2022-07-30T11:51:35.483Z,157.50
2022-07-30T11:52:35.427Z,157.50
2022-07-30T11:53:35.396Z,163.13
2022-07-30T11:54:35.380Z,163.13
2022-07-30T11:55:35.321Z,163.13
2022-07-30T11:56:35.281Z,230.63
2022-07-30T11:57:38.207Z,185.63
2022-07-30T11:58:35.216Z,326.25
2022-07-30T11:59:35.138Z,275.63
2022-07-30T12:00:35.136Z,258.75
2022-07-30T12:01:35.066Z,337.50
2022-07-30T12:02:35.039Z,354.38
2022-07-30T12:03:41.517Z,303.75
2022-07-30T12:04:41.556Z,360.00
2022-07-30T12:05:37.544Z,225.00
2022-07-30T12:06:37.523Z,219.38
2022-07-30T12:07:37.567Z,213.75
2022-07-30T12:08:37.543Z,208.13
2022-07-30T12:09:37.548Z,202.50
2022-07-30T12:10:34.703Z,202.50
2022-07-30T12:11:34.694Z,202.50
2022-07-30T12:12:34.615Z,320.63
2022-07-30T12:13:44.452Z,202.50
2022-07-30T12:14:34.528Z,191.25
2022-07-30T12:15:34.500Z,180.00
2022-07-30T12:16:34.447Z,174.38
2022-07-30T12:17:34.428Z,174.38
2022-07-30T12:18:34.366Z,168.75
2022-07-30T12:19:47.395Z,163.13
2022-07-30T12:20:34.278Z,168.75
2022-07-30T12:21:34.244Z,303.75
2022-07-30T12:22:34.216Z,286.88
2022-07-30T12:23:34.159Z,185.63
2022-07-30T12:24:34.097Z,174.38
2022-07-30T12:25:34.064Z,185.63
2022-07-30T12:26:34.069Z,163.13
2022-07-30T12:27:34.049Z,157.50
2022-07-30T12:28:33.949Z,151.88
2022-07-30T12:29:33.889Z,151.88
2022-07-30T12:30:33.862Z,157.50
2022-07-30T12:31:33.940Z,163.13
2022-07-30T12:32:33.809Z,163.13
2022-07-30T12:33:33.755Z,163.13
2022-07-30T12:34:33.731Z,168.75
2022-07-30T12:35:33.652Z,168.75
2022-07-30T12:36:33.680Z,168.75
2022-07-30T12:37:33.580Z,174.38
2022-07-30T12:38:33.572Z,241.88
2022-07-30T12:39:33.515Z,196.88
2022-07-30T12:40:33.469Z,191.25
2022-07-30T12:41:33.413Z,292.50
2022-07-30T12:42:33.364Z,270.00
2022-07-30T12:43:33.406Z,343.13
2022-07-30T12:44:33.364Z,343.13
2022-07-30T12:45:52.116Z,343.13
2022-07-30T12:46:33.190Z,343.13